createdAt,value
2023-04-10T00:00:23.000Z,93.74
2023-04-10T00:01:27.000Z,93.53
2023-04-10T00:02:31.000Z,93.43
2023-04-10T00:03:35.000Z,93.57
2023-04-10T00:04:39.000Z,93.37
2023-04-10T00:05:43.000Z,93.37
2023-04-10T00:06:47.000Z,93.95
2023-04-10T00:07:51.000Z,94.05
2023-04-10T00:08:55.000Z,93.95
2023-04-10T00:09:59.000Z,93.68
2023-04-10T00:11:03.000Z,93.47
2023-04-10T00:12:08.000Z,93.47
2023-04-10T00:13:12.000Z,93.99
2023-04-10T00:14:16.000Z,93.88
2023-04-10T00:15:20.000Z,93.68
2023-04-10T00:16:24.000Z,93.57
2023-04-10T00:17:28.000Z,93.57
2023-04-10T00:18:32.000Z,93.47
2023-04-10T00:19:36.000Z,93.88
2023-04-10T00:20:40.000Z,94.4
2023-04-10T00:21:44.000Z,94.82
2023-04-10T00:22:48.000Z,94.71
2023-04-10T00:23:52.000Z,95.03
2023-04-10T00:24:56.000Z,95.03
2023-04-10T00:26:00.000Z,95.28
2023-04-10T00:27:04.000Z,95.59
2023-04-10T00:28:08.000Z,96.0
2023-04-10T00:29:12.000Z,96.36
2023-04-10T00:30:16.000Z,96.47
2023-04-10T00:31:20.000Z,96.57
2023-04-10T00:32:24.000Z,96.57
2023-04-10T00:33:29.000Z,96.36
2023-04-10T00:34:32.000Z,95.84
2023-04-10T00:35:42.000Z,95.36
2023-04-10T00:36:46.000Z,94.95
2023-04-10T00:37:50.000Z,94.74
2023-04-10T00:38:54.000Z,94.64
2023-04-10T00:39:58.000Z,94.74
2023-04-10T00:41:02.000Z,94.74
2023-04-10T00:42:06.000Z,94.74
2023-04-10T00:43:10.000Z,94.74
2023-04-10T00:44:14.000Z,94.84
2023-04-10T00:45:18.000Z,94.84
2023-04-10T00:46:22.000Z,94.95
2023-04-10T00:47:26.000Z,94.95
2023-04-10T00:48:30.000Z,95.05
2023-04-10T00:49:34.000Z,95.05
2023-04-10T00:50:38.000Z,95.15
2023-04-10T00:51:42.000Z,95.15
2023-04-10T00:52:46.000Z,94.84
2023-04-10T00:53:50.000Z,94.68
2023-04-10T00:54:54.000Z,94.68
2023-04-10T00:55:58.000Z,94.68
2023-04-10T00:57:02.000Z,94.78
2023-04-10T00:58:06.000Z,96.45
2023-04-10T00:59:10.000Z,97.59
2023-04-10T01:00:14.000Z,97.59
2023-04-10T01:01:18.000Z,97.28
2023-04-10T01:02:23.000Z,97.8
2023-04-10T01:03:27.000Z,98.01
2023-04-10T01:04:31.000Z,97.8
2023-04-10T01:05:35.000Z,97.59
2023-04-10T01:06:39.000Z,97.38
2023-04-10T01:07:43.000Z,97.07
2023-04-10T01:08:47.000Z,96.66
2023-04-10T01:09:51.000Z,96.24
2023-04-10T01:10:55.000Z,95.93
2023-04-10T01:11:59.000Z,95.4
2023-04-10T01:13:03.000Z,94.99
2023-04-10T01:14:07.000Z,94.93
2023-04-10T01:15:11.000Z,96.08
2023-04-10T01:16:15.000Z,96.8
2023-04-10T01:17:19.000Z,96.8
2023-04-10T01:18:23.000Z,97.01
2023-04-10T01:19:27.000Z,97.07
2023-04-10T01:20:31.000Z,97.17
2023-04-10T01:21:35.000Z,96.86
2023-04-10T01:22:39.000Z,96.76
2023-04-10T01:23:43.000Z,96.86
2023-04-10T01:24:47.000Z,97.17
2023-04-10T01:25:51.000Z,97.07
2023-04-10T01:26:55.000Z,96.66
2023-04-10T01:27:59.000Z,96.34
2023-04-10T01:29:03.000Z,96.03
2023-04-10T01:30:07.000Z,95.62
2023-04-10T01:31:11.000Z,95.93
2023-04-10T01:32:15.000Z,96.03
2023-04-10T01:33:19.000Z,95.93
2023-04-10T01:34:23.000Z,95.93
2023-04-10T01:35:27.000Z,96.03
2023-04-10T01:36:31.000Z,96.03
2023-04-10T01:37:35.000Z,95.83
2023-04-10T01:38:39.000Z,96.03
2023-04-10T01:39:43.000Z,95.83
2023-04-10T01:40:47.000Z,95.62
2023-04-10T01:41:51.000Z,95.45
2023-04-10T01:42:55.000Z,95.4
2023-04-10T01:43:59.000Z,95.45
2023-04-10T01:45:03.000Z,95.35
2023-04-10T01:46:07.000Z,95.45
2023-04-10T01:47:11.000Z,95.35
2023-04-10T01:48:15.000Z,95.25
2023-04-10T01:49:19.000Z,95.14
2023-04-10T01:50:23.000Z,95.25
2023-04-10T01:51:27.000Z,95.66
2023-04-10T01:52:31.000Z,95.56
2023-04-10T01:53:36.000Z,95.35
2023-04-10T01:54:40.000Z,95.35
2023-04-10T01:55:44.000Z,95.35
2023-04-10T01:56:48.000Z,95.56
2023-04-10T01:57:52.000Z,95.6
2023-04-10T01:58:56.000Z,95.6
2023-04-10T02:00:00.000Z,95.6
2023-04-10T02:01:04.000Z,95.7
2023-04-10T02:02:08.000Z,95.6
2023-04-10T02:03:12.000Z,95.5
2023-04-10T02:04:16.000Z,95.7
2023-04-10T02:05:20.000Z,95.91
2023-04-10T02:06:24.000Z,96.01
2023-04-10T02:07:28.000Z,96.43
2023-04-10T02:08:32.000Z,96.53
2023-04-10T02:09:36.000Z,96.53
2023-04-10T02:10:40.000Z,96.43
2023-04-10T02:11:44.000Z,96.33
2023-04-10T02:12:48.000Z,96.33
2023-04-10T02:13:52.000Z,96.22
2023-04-10T02:14:56.000Z,96.22
2023-04-10T02:16:00.000Z,96.75
2023-04-10T02:17:04.000Z,96.85
2023-04-10T02:18:08.000Z,96.75
2023-04-10T02:19:12.000Z,96.53
2023-04-10T02:20:16.000Z,96.43
2023-04-10T02:21:21.000Z,96.33
2023-04-10T02:22:25.000Z,96.33
2023-04-10T02:23:29.000Z,96.64
2023-04-10T02:24:33.000Z,97.06
2023-04-10T02:25:37.000Z,97.37
2023-04-10T02:26:41.000Z,97.78
2023-04-10T02:27:45.000Z,98.1
2023-04-10T02:28:49.000Z,98.26
2023-04-10T02:29:53.000Z,98.47
2023-04-10T02:30:57.000Z,98.57
2023-04-10T02:32:01.000Z,98.68
2023-04-10T02:33:05.000Z,98.68
2023-04-10T02:34:09.000Z,98.78
2023-04-10T02:35:18.000Z,98.78
2023-04-10T02:36:22.000Z,98.68
2023-04-10T02:37:26.000Z,98.78
2023-04-10T02:38:30.000Z,98.78
2023-04-10T02:39:34.000Z,98.78
2023-04-10T02:40:43.000Z,98.74
2023-04-10T02:41:47.000Z,98.74
2023-04-10T02:42:51.000Z,98.74
2023-04-10T02:43:55.000Z,98.84
2023-04-10T02:44:59.000Z,98.94
2023-04-10T02:46:03.000Z,99.05
2023-04-10T02:47:07.000Z,99.05
2023-04-10T02:48:11.000Z,99.01
2023-04-10T02:49:15.000Z,99.01
2023-04-10T02:50:19.000Z,98.8
2023-04-10T02:51:23.000Z,98.8
2023-04-10T02:52:27.000Z,98.59
2023-04-10T02:53:31.000Z,98.38
2023-04-10T02:54:35.000Z,98.13
2023-04-10T02:55:39.000Z,97.81
2023-04-10T02:56:43.000Z,97.61
2023-04-10T02:57:47.000Z,97.5
2023-04-10T02:58:51.000Z,97.3
2023-04-10T02:59:55.000Z,97.19
2023-04-10T03:00:59.000Z,96.98
2023-04-10T03:02:03.000Z,96.88
2023-04-10T03:03:07.000Z,96.67
2023-04-10T03:04:11.000Z,96.47
2023-04-10T03:05:15.000Z,96.25
2023-04-10T03:06:19.000Z,96.04
2023-04-10T03:07:23.000Z,95.94
2023-04-10T03:08:27.000Z,95.94
2023-04-10T03:09:31.000Z,96.04
2023-04-10T03:10:35.000Z,95.84
2023-04-10T03:11:39.000Z,95.84
2023-04-10T03:12:43.000Z,96.15
2023-04-10T03:13:47.000Z,95.94
2023-04-10T03:14:51.000Z,95.84
2023-04-10T03:15:55.000Z,95.63
2023-04-10T03:16:59.000Z,95.11
2023-04-10T03:18:03.000Z,95.11
2023-04-10T03:19:07.000Z,95.21
2023-04-10T03:20:11.000Z,95.47
2023-04-10T03:21:15.000Z,95.57
2023-04-10T03:22:19.000Z,95.67
2023-04-10T03:23:23.000Z,95.67
2023-04-10T03:24:27.000Z,95.78
2023-04-10T03:25:31.000Z,95.51
2023-04-10T03:26:35.000Z,96.03
2023-04-10T03:27:39.000Z,95.83
2023-04-10T03:28:43.000Z,95.3
2023-04-10T03:29:47.000Z,95.03
2023-04-10T03:30:51.000Z,94.93
2023-04-10T03:31:55.000Z,95.03
2023-04-10T03:32:59.000Z,95.56
2023-04-10T03:34:03.000Z,95.56
2023-04-10T03:35:07.000Z,95.35
2023-04-10T03:36:11.000Z,95.14
2023-04-10T03:37:15.000Z,94.98
2023-04-10T03:38:19.000Z,94.98
2023-04-10T03:39:23.000Z,94.87
2023-04-10T03:40:27.000Z,95.39
2023-04-10T03:41:31.000Z,96.53
2023-04-10T03:42:35.000Z,96.64
2023-04-10T03:43:39.000Z,96.53
2023-04-10T03:44:43.000Z,96.85
2023-04-10T03:45:47.000Z,96.85
2023-04-10T03:46:51.000Z,97.58
2023-04-10T03:47:55.000Z,97.47
2023-04-10T03:48:59.000Z,97.37
2023-04-10T03:50:03.000Z,97.37
2023-04-10T03:51:07.000Z,97.37
2023-04-10T03:52:11.000Z,97.37
2023-04-10T03:53:15.000Z,97.27
2023-04-10T03:54:19.000Z,97.27
2023-04-10T03:55:23.000Z,97.06
2023-04-10T03:56:27.000Z,97.27
2023-04-10T03:57:31.000Z,96.85
2023-04-10T03:58:35.000Z,96.37
2023-04-10T03:59:39.000Z,95.85
2023-04-10T04:00:43.000Z,96.11
2023-04-10T04:01:47.000Z,96.46
2023-04-10T04:02:52.000Z,97.44
2023-04-10T04:03:56.000Z,97.97
2023-04-10T04:05:00.000Z,98.32
2023-04-10T04:06:04.000Z,98.85
2023-04-10T04:07:08.000Z,99.2
2023-04-10T04:08:12.000Z,99.52
2023-04-10T04:09:16.000Z,99.83
2023-04-10T04:10:20.000Z,99.99
2023-04-10T04:11:24.000Z,99.99
2023-04-10T04:12:28.000Z,99.99
2023-04-10T04:13:32.000Z,99.99
2023-04-10T04:14:36.000Z,99.99
2023-04-10T04:15:40.000Z,99.99
2023-04-10T04:16:44.000Z,99.99
2023-04-10T04:17:48.000Z,99.99
2023-04-10T04:18:52.000Z,99.99
2023-04-10T04:19:56.000Z,99.99
2023-04-10T04:21:00.000Z,99.99
2023-04-10T04:22:04.000Z,99.99
2023-04-10T04:23:08.000Z,99.99
2023-04-10T04:24:12.000Z,99.99
2023-04-10T04:25:16.000Z,99.99
2023-04-10T04:26:20.000Z,99.99
2023-04-10T04:27:24.000Z,99.99
2023-04-10T04:28:28.000Z,99.99
2023-04-10T04:29:32.000Z,99.99
2023-04-10T04:30:36.000Z,99.99
2023-04-10T04:31:40.000Z,99.99
2023-04-10T04:32:44.000Z,99.99
2023-04-10T04:33:48.000Z,99.99
2023-04-10T04:34:52.000Z,99.99
2023-04-10T04:35:56.000Z,99.99
2023-04-10T04:37:00.000Z,99.99
2023-04-10T04:38:04.000Z,99.99
2023-04-10T04:39:08.000Z,99.99
2023-04-10T04:40:12.000Z,99.99
2023-04-10T04:41:16.000Z,99.8
2023-04-10T04:42:20.000Z,99.59
2023-04-10T04:43:24.000Z,99.27
2023-04-10T04:44:28.000Z,99.27
2023-04-10T04:45:32.000Z,99.27
2023-04-10T04:46:36.000Z,99.17
2023-04-10T04:47:40.000Z,99.38
2023-04-10T04:48:44.000Z,99.48
2023-04-10T04:49:48.000Z,99.69
2023-04-10T04:50:52.000Z,99.8
2023-04-10T04:51:56.000Z,99.75
2023-04-10T04:53:00.000Z,99.75
2023-04-10T04:54:04.000Z,99.65
2023-04-10T04:55:08.000Z,99.33
2023-04-10T04:56:12.000Z,99.13
2023-04-10T04:57:16.000Z,98.77
2023-04-10T04:58:20.000Z,98.77
2023-04-10T04:59:24.000Z,99.08
2023-04-10T05:00:28.000Z,98.97
2023-04-10T05:01:32.000Z,99.29
2023-04-10T05:02:36.000Z,99.08
2023-04-10T05:03:40.000Z,99.35
2023-04-10T05:04:44.000Z,99.55
2023-04-10T05:05:48.000Z,99.45
2023-04-10T05:06:52.000Z,99.24
2023-04-10T05:07:56.000Z,98.88
2023-04-10T05:09:00.000Z,98.88
2023-04-10T05:10:04.000Z,98.78
2023-04-10T05:11:08.000Z,98.78
2023-04-10T05:12:12.000Z,98.94
2023-04-10T05:13:16.000Z,98.94
2023-04-10T05:14:20.000Z,98.94
2023-04-10T05:15:24.000Z,98.69
2023-04-10T05:16:28.000Z,98.48
2023-04-10T05:17:32.000Z,98.17
2023-04-10T05:18:36.000Z,97.96
2023-04-10T05:19:40.000Z,97.61
2023-04-10T05:20:44.000Z,97.4
2023-04-10T05:21:48.000Z,97.19
2023-04-10T05:22:52.000Z,96.88
2023-04-10T05:23:56.000Z,96.62
2023-04-10T05:25:00.000Z,96.42
2023-04-10T05:26:04.000Z,96.11
2023-04-10T05:27:08.000Z,95.69
2023-04-10T05:28:12.000Z,95.59
2023-04-10T05:29:16.000Z,95.23
2023-04-10T05:30:20.000Z,95.03
2023-04-10T05:31:24.000Z,94.92
2023-04-10T05:32:28.000Z,94.67
2023-04-10T05:33:32.000Z,94.26
2023-04-10T05:34:36.000Z,94.05
2023-04-10T05:35:40.000Z,93.95
2023-04-10T05:36:44.000Z,93.53
2023-04-10T05:37:48.000Z,93.38
2023-04-10T05:38:52.000Z,93.07
2023-04-10T05:39:56.000Z,93.07
2023-04-10T05:41:00.000Z,92.86
2023-04-10T05:42:04.000Z,92.82
2023-04-10T05:43:08.000Z,92.51
2023-04-10T05:44:12.000Z,92.3
2023-04-10T05:45:16.000Z,92.41
2023-04-10T05:46:20.000Z,92.26
2023-04-10T05:47:24.000Z,92.16
2023-04-10T05:48:28.000Z,91.74
2023-04-10T05:49:32.000Z,91.74
2023-04-10T05:50:36.000Z,91.8
2023-04-10T05:51:40.000Z,91.7
2023-04-10T05:52:44.000Z,91.18
2023-04-10T05:53:48.000Z,91.39
2023-04-10T05:54:52.000Z,91.45
2023-04-10T05:55:56.000Z,91.14
2023-04-10T05:57:00.000Z,90.68
2023-04-10T05:58:04.000Z,90.23
2023-04-10T05:59:08.000Z,89.5
2023-04-10T06:00:12.000Z,88.78
2023-04-10T06:01:16.000Z,88.98
2023-04-10T06:02:20.000Z,89.09
2023-04-10T06:03:24.000Z,88.64
2023-04-10T06:04:28.000Z,88.01
2023-04-10T06:05:32.000Z,87.91
2023-04-10T06:06:36.000Z,87.81
2023-04-10T06:07:40.000Z,88.01
2023-04-10T06:08:44.000Z,88.22
2023-04-10T06:09:48.000Z,88.32
2023-04-10T06:10:52.000Z,88.39
2023-04-10T06:11:56.000Z,87.97
2023-04-10T06:13:00.000Z,87.97
2023-04-10T06:14:04.000Z,87.76
2023-04-10T06:15:08.000Z,87.97
2023-04-10T06:16:12.000Z,87.76
2023-04-10T06:17:16.000Z,87.66
2023-04-10T06:18:20.000Z,87.35
2023-04-10T06:19:24.000Z,87.46
2023-04-10T06:20:28.000Z,87.1
2023-04-10T06:21:32.000Z,86.9
2023-04-10T06:22:36.000Z,86.65
2023-04-10T06:23:40.000Z,86.13
2023-04-10T06:24:44.000Z,85.89
2023-04-10T06:25:48.000Z,85.78
2023-04-10T06:26:52.000Z,86.2
2023-04-10T06:27:56.000Z,86.51
2023-04-10T06:29:00.000Z,86.26
2023-04-10T06:30:04.000Z,85.95
2023-04-10T06:31:08.000Z,85.75
2023-04-10T06:32:12.000Z,85.91
2023-04-10T06:33:16.000Z,86.12
2023-04-10T06:34:20.000Z,85.6
2023-04-10T06:35:24.000Z,84.47
2023-04-10T06:36:28.000Z,84.74
2023-04-10T06:37:32.000Z,84.53
2023-04-10T06:38:36.000Z,84.43
2023-04-10T06:39:40.000Z,84.43
2023-04-10T06:40:44.000Z,84.12
2023-04-10T06:41:48.000Z,84.64
2023-04-10T06:42:52.000Z,84.64
2023-04-10T06:43:56.000Z,84.53
2023-04-10T06:45:00.000Z,84.33
2023-04-10T06:46:04.000Z,84.84
2023-04-10T06:47:08.000Z,84.64
2023-04-10T06:48:12.000Z,84.53
2023-04-10T06:49:17.000Z,84.64
2023-04-10T06:50:21.000Z,85.05
2023-04-10T06:51:25.000Z,85.01
2023-04-10T06:52:29.000Z,85.73
2023-04-10T06:53:33.000Z,85.73
2023-04-10T06:54:37.000Z,85.42
2023-04-10T06:55:41.000Z,85.31
2023-04-10T06:56:45.000Z,84.91
2023-04-10T06:57:49.000Z,84.8
2023-04-10T06:58:53.000Z,84.87
2023-04-10T06:59:57.000Z,85.49
2023-04-10T07:01:01.000Z,85.79
2023-04-10T07:02:05.000Z,85.59
2023-04-10T07:03:09.000Z,85.49
2023-04-10T07:04:13.000Z,85.79
2023-04-10T07:05:17.000Z,85.55
2023-04-10T07:06:21.000Z,85.55
2023-04-10T07:07:25.000Z,85.75
2023-04-10T07:08:29.000Z,85.41
2023-04-10T07:09:33.000Z,85.51
2023-04-10T07:10:37.000Z,85.92
2023-04-10T07:11:41.000Z,86.13
2023-04-10T07:12:45.000Z,85.78
2023-04-10T07:13:49.000Z,85.88
2023-04-10T07:14:53.000Z,85.78
2023-04-10T07:15:57.000Z,85.53
2023-04-10T07:17:01.000Z,84.81
2023-04-10T07:18:05.000Z,85.02
2023-04-10T07:19:09.000Z,85.9
2023-04-10T07:20:13.000Z,84.98
2023-04-10T07:21:17.000Z,84.16
2023-04-10T07:22:21.000Z,83.7
2023-04-10T07:23:25.000Z,84.12
2023-04-10T07:24:29.000Z,83.15
2023-04-10T07:25:33.000Z,83.36
2023-04-10T07:26:37.000Z,82.5
2023-04-10T07:27:41.000Z,82.09
2023-04-10T07:28:45.000Z,82.05
2023-04-10T07:29:49.000Z,80.62
2023-04-10T07:30:53.000Z,80.31
2023-04-10T07:31:58.000Z,79.49
2023-04-10T07:33:02.000Z,80.17
2023-04-10T07:34:06.000Z,79.55
2023-04-10T07:35:09.000Z,79.04
2023-04-10T07:36:13.000Z,79.04
2023-04-10T07:37:17.000Z,79.35
2023-04-10T07:38:21.000Z,79.82
2023-04-10T07:39:25.000Z,79.41
2023-04-10T07:40:29.000Z,79.0
2023-04-10T07:41:33.000Z,77.47
2023-04-10T07:42:37.000Z,76.51
2023-04-10T07:43:41.000Z,77.23
2023-04-10T07:44:45.000Z,76.61
2023-04-10T07:45:49.000Z,77.5
2023-04-10T07:46:53.000Z,75.96
2023-04-10T07:47:57.000Z,75.35
2023-04-10T07:49:01.000Z,76.75
2023-04-10T07:50:05.000Z,74.9
2023-04-10T07:51:09.000Z,75.01
2023-04-10T07:52:13.000Z,75.62
2023-04-10T07:53:18.000Z,75.68
2023-04-10T07:54:22.000Z,74.56
2023-04-10T07:55:26.000Z,73.64
2023-04-10T07:56:30.000Z,74.66
2023-04-10T07:57:34.000Z,74.05
2023-04-10T07:58:43.000Z,73.64
2023-04-10T07:59:47.000Z,73.91
2023-04-10T08:00:51.000Z,74.05
2023-04-10T08:01:55.000Z,74.11
2023-04-10T08:02:59.000Z,74.32
2023-04-10T08:04:03.000Z,74.18
2023-04-10T08:05:08.000Z,73.57
2023-04-10T08:06:12.000Z,73.64
2023-04-10T08:07:16.000Z,73.33
2023-04-10T08:08:20.000Z,74.56
2023-04-10T08:09:24.000Z,74.46
2023-04-10T08:10:28.000Z,75.24
2023-04-10T08:11:32.000Z,75.34
2023-04-10T08:12:36.000Z,73.77
2023-04-10T08:13:40.000Z,72.86
2023-04-10T08:14:44.000Z,71.5
2023-04-10T08:15:48.000Z,70.89
2023-04-10T08:16:52.000Z,69.66
2023-04-10T08:17:56.000Z,70.17
2023-04-10T08:19:00.000Z,69.25
2023-04-10T08:20:04.000Z,68.91
2023-04-10T08:21:08.000Z,68.51
2023-04-10T08:22:12.000Z,69.29
2023-04-10T08:23:16.000Z,70.82
2023-04-10T08:24:20.000Z,68.17
2023-04-10T08:25:24.000Z,67.96
2023-04-10T08:26:28.000Z,68.65
2023-04-10T08:27:32.000Z,69.15
2023-04-10T08:28:36.000Z,68.13
2023-04-10T08:29:40.000Z,68.01
2023-04-10T08:30:44.000Z,67.9
2023-04-10T08:31:48.000Z,66.99
2023-04-10T08:32:52.000Z,64.51
2023-04-10T08:33:56.000Z,65.22
2023-04-10T08:35:00.000Z,65.6
2023-04-10T08:36:04.000Z,65.63
2023-04-10T08:37:08.000Z,65.39
2023-04-10T08:38:12.000Z,65.19
2023-04-10T08:39:16.000Z,64.48
2023-04-10T08:40:20.000Z,65.26
2023-04-10T08:41:25.000Z,65.88
2023-04-10T08:42:29.000Z,64.55
2023-04-10T08:43:33.000Z,65.74
2023-04-10T08:44:37.000Z,65.54
2023-04-10T08:45:41.000Z,65.44
2023-04-10T08:46:45.000Z,64.7
2023-04-10T08:47:49.000Z,63.28
2023-04-10T08:48:53.000Z,64.52
2023-04-10T08:49:57.000Z,65.23
2023-04-10T08:51:01.000Z,64.39
2023-04-10T08:52:05.000Z,67.13
2023-04-10T08:53:09.000Z,65.51
2023-04-10T08:54:13.000Z,63.55
2023-04-10T08:55:17.000Z,62.53
2023-04-10T08:56:21.000Z,64.76
2023-04-10T08:57:26.000Z,65.45
2023-04-10T08:58:30.000Z,60.37
2023-04-10T08:59:34.000Z,62.6
2023-04-10T09:00:38.000Z,64.0
2023-04-10T09:01:42.000Z,60.07
2023-04-10T09:02:46.000Z,62.23
2023-04-10T09:03:50.000Z,65.55
2023-04-10T09:04:54.000Z,66.19
2023-04-10T09:05:58.000Z,64.07
2023-04-10T09:07:02.000Z,61.53
2023-04-10T09:08:06.000Z,62.52
2023-04-10T09:09:09.000Z,61.2
2023-04-10T09:10:14.000Z,60.79
2023-04-10T09:11:18.000Z,61.07
2023-04-10T09:12:22.000Z,60.97
2023-04-10T09:13:26.000Z,60.63
2023-04-10T09:14:29.000Z,61.24
2023-04-10T09:15:33.000Z,60.1
2023-04-10T09:16:38.000Z,59.16
2023-04-10T09:17:41.000Z,59.56
2023-04-10T09:18:46.000Z,59.97
2023-04-10T09:19:50.000Z,59.14
2023-04-10T09:20:54.000Z,57.82
2023-04-10T09:21:58.000Z,59.44
2023-04-10T09:23:02.000Z,58.93
2023-04-10T09:24:06.000Z,59.06
2023-04-10T09:25:10.000Z,58.78
2023-04-10T09:26:14.000Z,59.8
2023-04-10T09:27:18.000Z,62.33
2023-04-10T09:28:22.000Z,59.67
2023-04-10T09:29:26.000Z,58.36
2023-04-10T09:30:30.000Z,59.16
2023-04-10T09:31:34.000Z,58.73
2023-04-10T09:32:38.000Z,57.21
2023-04-10T09:33:42.000Z,58.43
2023-04-10T09:34:46.000Z,58.53
2023-04-10T09:35:51.000Z,59.84
2023-04-10T09:36:55.000Z,59.71
2023-04-10T09:37:59.000Z,58.3
2023-04-10T09:39:03.000Z,60.8
2023-04-10T09:40:07.000Z,58.09
2023-04-10T09:41:11.000Z,56.85
2023-04-10T09:42:15.000Z,58.45
2023-04-10T09:43:19.000Z,58.95
2023-04-10T09:44:23.000Z,56.83
2023-04-10T09:45:27.000Z,55.99
2023-04-10T09:46:31.000Z,57.34
2023-04-10T09:47:35.000Z,55.92
2023-04-10T09:48:39.000Z,58.27
2023-04-10T09:49:44.000Z,57.84
2023-04-10T09:50:48.000Z,57.23
2023-04-10T09:51:52.000Z,58.52
2023-04-10T09:52:56.000Z,57.08
2023-04-10T09:54:00.000Z,55.87
2023-04-10T09:55:04.000Z,56.88
2023-04-10T09:56:08.000Z,56.15
2023-04-10T09:57:12.000Z,56.85
2023-04-10T09:58:16.000Z,55.74
2023-04-10T09:59:20.000Z,56.35
2023-04-10T10:00:24.000Z,56.42
2023-04-10T10:01:28.000Z,54.41
2023-04-10T10:02:32.000Z,55.14
2023-04-10T10:03:36.000Z,55.62
2023-04-10T10:04:40.000Z,55.41
2023-04-10T10:05:44.000Z,53.32
2023-04-10T10:06:48.000Z,56.55
2023-04-10T10:07:53.000Z,55.94
2023-04-10T10:08:57.000Z,57.18
2023-04-10T10:10:01.000Z,56.04
2023-04-10T10:11:05.000Z,56.22
2023-04-10T10:12:09.000Z,56.32
2023-04-10T10:13:13.000Z,56.9
2023-04-10T10:14:17.000Z,54.58
2023-04-10T10:15:21.000Z,54.68
2023-04-10T10:16:25.000Z,54.08
2023-04-10T10:17:29.000Z,53.25
2023-04-10T10:18:34.000Z,54.58
2023-04-10T10:19:38.000Z,56.8
2023-04-10T10:20:42.000Z,58.58
2023-04-10T10:21:46.000Z,54.18
2023-04-10T10:22:50.000Z,55.69
2023-04-10T10:23:54.000Z,54.25
2023-04-10T10:24:58.000Z,54.15
2023-04-10T10:26:02.000Z,57.57
2023-04-10T10:27:06.000Z,56.95
2023-04-10T10:28:10.000Z,55.03
2023-04-10T10:29:15.000Z,54.05
2023-04-10T10:30:18.000Z,55.26
2023-04-10T10:31:22.000Z,55.39
2023-04-10T10:32:27.000Z,55.46
2023-04-10T10:33:30.000Z,54.05
2023-04-10T10:34:35.000Z,56.27
2023-04-10T10:35:40.000Z,55.83
2023-04-10T10:36:44.000Z,56.04
2023-04-10T10:37:48.000Z,56.04
2023-04-10T10:38:52.000Z,53.83
2023-04-10T10:39:56.000Z,54.86
2023-04-10T10:41:00.000Z,53.45
2023-04-10T10:42:04.000Z,53.32
2023-04-10T10:43:08.000Z,54.93
2023-04-10T10:44:12.000Z,52.62
2023-04-10T10:45:16.000Z,52.42
2023-04-10T10:46:20.000Z,55.03
2023-04-10T10:47:24.000Z,54.1
2023-04-10T10:48:28.000Z,53.6
2023-04-10T10:49:32.000Z,52.09
2023-04-10T10:50:36.000Z,52.19
2023-04-10T10:51:40.000Z,52.19
2023-04-10T10:52:44.000Z,54.23
2023-04-10T10:53:48.000Z,53.72
2023-04-10T10:54:53.000Z,52.49
2023-04-10T10:55:57.000Z,55.0
2023-04-10T10:57:01.000Z,53.32
2023-04-10T10:58:05.000Z,52.01
2023-04-10T10:59:09.000Z,53.75
2023-04-10T11:00:13.000Z,53.02
2023-04-10T11:01:17.000Z,53.12
2023-04-10T11:02:21.000Z,55.29
2023-04-10T11:03:25.000Z,55.08
2023-04-10T11:04:29.000Z,54.86
2023-04-10T11:05:33.000Z,54.28
2023-04-10T11:06:37.000Z,54.3
2023-04-10T11:07:41.000Z,54.71
2023-04-10T11:08:45.000Z,56.02
2023-04-10T11:09:50.000Z,55.89
2023-04-10T11:10:54.000Z,52.89
2023-04-10T11:11:58.000Z,56.95
2023-04-10T11:13:02.000Z,57.7
2023-04-10T11:14:06.000Z,54.48
2023-04-10T11:15:10.000Z,56.62
2023-04-10T11:16:15.000Z,55.99
2023-04-10T11:17:19.000Z,54.88
2023-04-10T11:18:23.000Z,54.25
2023-04-10T11:19:27.000Z,52.24
2023-04-10T11:20:30.000Z,54.86
2023-04-10T11:21:35.000Z,53.52
2023-04-10T11:22:39.000Z,54.53
2023-04-10T11:23:43.000Z,53.52
2023-04-10T11:24:47.000Z,53.22
2023-04-10T11:25:51.000Z,54.2
2023-04-10T11:26:55.000Z,54.5
2023-04-10T11:27:59.000Z,51.66
2023-04-10T11:29:03.000Z,51.56
2023-04-10T11:30:07.000Z,53.05
2023-04-10T11:31:11.000Z,51.94
2023-04-10T11:32:15.000Z,50.41
2023-04-10T11:33:19.000Z,51.72
2023-04-10T11:34:23.000Z,51.39
2023-04-10T11:35:27.000Z,50.29
2023-04-10T11:36:31.000Z,52.67
2023-04-10T11:37:35.000Z,53.27
2023-04-10T11:38:39.000Z,52.47
2023-04-10T11:39:43.000Z,50.66
2023-04-10T11:40:47.000Z,49.76
2023-04-10T11:41:51.000Z,50.96
2023-04-10T11:42:55.000Z,51.56
2023-04-10T11:43:58.000Z,51.74
2023-04-10T11:45:02.000Z,49.46
2023-04-10T11:46:06.000Z,49.26
2023-04-10T11:47:10.000Z,49.05
2023-04-10T11:48:14.000Z,49.58
2023-04-10T11:49:18.000Z,50.06
2023-04-10T11:50:22.000Z,49.93
2023-04-10T11:51:26.000Z,50.62
2023-04-10T11:52:30.000Z,53.02
2023-04-10T11:53:34.000Z,50.81
2023-04-10T11:54:37.000Z,49.08
2023-04-10T11:55:41.000Z,50.21
2023-04-10T11:56:45.000Z,48.86
2023-04-10T11:57:49.000Z,49.76
2023-04-10T11:58:53.000Z,47.67
2023-04-10T11:59:57.000Z,52.29
2023-04-10T12:01:01.000Z,52.59
2023-04-10T12:02:05.000Z,52.17
2023-04-10T12:03:09.000Z,49.36
2023-04-10T12:04:13.000Z,50.46
2023-04-10T12:05:16.000Z,50.16
2023-04-10T12:06:20.000Z,51.34
2023-04-10T12:07:24.000Z,50.31
2023-04-10T12:08:28.000Z,49.29
2023-04-10T12:09:32.000Z,49.08
2023-04-10T12:10:36.000Z,49.08
2023-04-10T12:11:40.000Z,49.76
2023-04-10T12:12:44.000Z,47.28
2023-04-10T12:13:48.000Z,50.19
2023-04-10T12:14:52.000Z,47.58
2023-04-10T12:15:56.000Z,49.29
2023-04-10T12:17:00.000Z,47.71
2023-04-10T12:18:04.000Z,50.26
2023-04-10T12:19:08.000Z,49.43
2023-04-10T12:20:12.000Z,50.16
2023-04-10T12:21:16.000Z,48.98
2023-04-10T12:22:20.000Z,48.98
2023-04-10T12:23:24.000Z,49.98
2023-04-10T12:24:28.000Z,47.97
2023-04-10T12:25:31.000Z,48.43
2023-04-10T12:26:35.000Z,50.23
2023-04-10T12:27:39.000Z,49.4
2023-04-10T12:28:43.000Z,48.9
2023-04-10T12:29:47.000Z,48.66
2023-04-10T12:30:51.000Z,50.56
2023-04-10T12:31:55.000Z,49.66
2023-04-10T12:32:59.000Z,51.04
2023-04-10T12:34:03.000Z,50.21
2023-04-10T12:35:07.000Z,48.41
2023-04-10T12:36:11.000Z,50.04
2023-04-10T12:37:15.000Z,49.93
2023-04-10T12:38:19.000Z,48.93
2023-04-10T12:39:23.000Z,50.04
2023-04-10T12:40:27.000Z,48.51
2023-04-10T12:41:31.000Z,47.96
2023-04-10T12:42:35.000Z,50.66
2023-04-10T12:43:38.000Z,50.29
2023-04-10T12:44:42.000Z,52.8
2023-04-10T12:45:46.000Z,51.81
2023-04-10T12:46:50.000Z,51.49
2023-04-10T12:47:54.000Z,50.46
2023-04-10T12:48:58.000Z,50.36
2023-04-10T12:50:02.000Z,49.04
2023-04-10T12:51:06.000Z,49.23
2023-04-10T12:52:10.000Z,51.29
2023-04-10T12:53:14.000Z,47.88
2023-04-10T12:54:18.000Z,48.86
2023-04-10T12:55:22.000Z,50.76
2023-04-10T12:56:26.000Z,49.26
2023-04-10T12:57:30.000Z,47.66
2023-04-10T12:58:34.000Z,46.66
2023-04-10T12:59:38.000Z,46.98
2023-04-10T13:00:42.000Z,47.69
2023-04-10T13:01:45.000Z,46.26
2023-04-10T13:02:50.000Z,45.26
2023-04-10T13:03:55.000Z,47.64
2023-04-10T13:05:04.000Z,47.34
2023-04-10T13:06:09.000Z,46.94
2023-04-10T13:07:13.000Z,46.04
2023-04-10T13:08:17.000Z,46.14
2023-04-10T13:09:26.000Z,46.86
2023-04-10T13:10:30.000Z,46.34
2023-04-10T13:11:34.000Z,44.84
2023-04-10T13:12:38.000Z,43.16
2023-04-10T13:13:43.000Z,44.5
2023-04-10T13:14:47.000Z,45.47
2023-04-10T13:15:51.000Z,42.35
2023-04-10T13:16:56.000Z,43.16
2023-04-10T13:18:00.000Z,42.83
2023-04-10T13:19:04.000Z,42.94
2023-04-10T13:20:08.000Z,44.34
2023-04-10T13:21:12.000Z,42.74
2023-04-10T13:22:16.000Z,43.42
2023-04-10T13:23:20.000Z,42.61
2023-04-10T13:24:24.000Z,42.49
2023-04-10T13:25:28.000Z,43.5
2023-04-10T13:26:33.000Z,42.8
2023-04-10T13:27:37.000Z,45.1
2023-04-10T13:28:42.000Z,41.29
2023-04-10T13:29:46.000Z,43.22
2023-04-10T13:30:50.000Z,42.82
2023-04-10T13:31:54.000Z,44.12
2023-04-10T13:32:58.000Z,42.91
2023-04-10T13:34:02.000Z,42.94
2023-04-10T13:35:07.000Z,44.95
2023-04-10T13:36:16.000Z,44.52
2023-04-10T13:37:20.000Z,44.02
2023-04-10T13:38:24.000Z,45.32
2023-04-10T13:39:28.000Z,44.0
2023-04-10T13:40:32.000Z,43.3
2023-04-10T13:41:36.000Z,44.4
2023-04-10T13:42:40.000Z,43.1
2023-04-10T13:43:44.000Z,43.9
2023-04-10T13:44:48.000Z,44.6
2023-04-10T13:45:53.000Z,42.6
2023-04-10T13:46:57.000Z,42.3
2023-04-10T13:48:01.000Z,43.19